createdAt,value
2017-07-21T00:01:52.414Z,6.45
2017-07-21T00:04:19.125Z,7.37
2017-07-21T00:06:45.765Z,6.80
2017-07-21T00:09:12.370Z,7.18
2017-07-21T00:11:39.014Z,10.20
2017-07-21T00:14:05.663Z,7.40
2017-07-21T00:16:32.374Z,7.18
2017-07-21T00:18:59.219Z,8.57
2017-07-21T00:21:25.868Z,11.02
2017-07-21T00:23:52.526Z,13.48
2017-07-21T00:26:19.229Z,7.87
2017-07-21T00:28:45.863Z,8.10
2017-07-21T00:31:13.150Z,8.32
2017-07-21T00:33:39.851Z,7.90
2017-07-21T00:36:06.501Z,16.42
2017-07-21T00:38:33.254Z,8.90
2017-07-21T00:40:59.917Z,9.70
2017-07-21T00:43:26.576Z,12.80
2017-07-21T00:45:53.239Z,11.70
2017-07-21T00:48:20.100Z,10.32
2017-07-21T00:50:46.762Z,9.27
2017-07-21T00:53:13.486Z,9.55
2017-07-21T00:55:40.226Z,9.45
2017-07-21T00:58:06.870Z,9.43
2017-07-21T01:00:33.618Z,13.32
2017-07-21T01:03:00.350Z,8.27
2017-07-21T01:05:26.993Z,10.25
2017-07-21T01:07:53.643Z,8.48
2017-07-21T01:10:20.367Z,8.05
2017-07-21T01:12:47.010Z,8.52
2017-07-21T01:15:13.670Z,10.02
2017-07-21T01:17:40.389Z,8.85
2017-07-21T01:20:07.032Z,10.73
2017-07-21T01:22:33.690Z,10.20
2017-07-21T01:25:00.427Z,9.90
2017-07-21T01:27:27.158Z,9.90
2017-07-21T01:29:53.804Z,11.27
2017-07-21T01:32:20.528Z,11.27
2017-07-21T01:34:47.187Z,12.18
2017-07-21T01:37:13.923Z,9.95
2017-07-21T01:39:40.662Z,9.57
2017-07-21T01:42:07.322Z,10.77
2017-07-21T01:44:33.983Z,9.48
2017-07-21T01:47:00.663Z,9.32
2017-07-21T01:49:27.418Z,9.40
2017-07-21T01:51:54.064Z,11.55
2017-07-21T01:54:20.798Z,10.52
2017-07-21T01:56:47.536Z,9.63
2017-07-21T01:59:14.283Z,8.77
2017-07-21T02:01:40.959Z,11.20
2017-07-21T02:04:07.600Z,9.27
2017-07-21T02:06:34.292Z,11.77
2017-07-21T02:09:01.039Z,11.32
2017-07-21T02:11:27.793Z,14.25
2017-07-21T02:13:54.534Z,13.73
2017-07-21T02:16:21.218Z,14.55
2017-07-21T02:18:47.881Z,14.35
2017-07-21T02:21:14.639Z,14.70
2017-07-21T02:23:41.384Z,15.68
2017-07-21T02:26:08.126Z,15.13
2017-07-21T02:28:34.874Z,15.10
2017-07-21T02:31:01.541Z,11.48
2017-07-21T02:33:28.202Z,16.17
2017-07-21T02:35:54.870Z,18.52
2017-07-21T02:38:21.555Z,17.60
2017-07-21T02:40:48.263Z,19.45
2017-07-21T02:43:14.927Z,18.50
2017-07-21T02:45:41.863Z,15.73
2017-07-21T02:48:08.607Z,16.15
2017-07-21T02:50:35.261Z,15.82
2017-07-21T02:53:01.987Z,14.87
2017-07-21T02:55:28.731Z,12.25
2017-07-21T02:57:55.451Z,15.43
2017-07-21T03:00:22.130Z,18.48
2017-07-21T03:02:48.952Z,19.12
2017-07-21T03:05:15.688Z,17.20
2017-07-21T03:07:43.467Z,17.75
2017-07-21T03:10:10.138Z,14.80
2017-07-21T03:12:36.848Z,16.33
2017-07-21T03:15:03.516Z,16.58
2017-07-21T03:17:30.208Z,22.37
2017-07-21T03:19:56.870Z,12.68
2017-07-21T03:22:23.630Z,12.18
2017-07-21T03:24:50.294Z,19.67
2017-07-21T03:27:16.974Z,15.70
2017-07-21T03:29:43.922Z,15.00
2017-07-21T03:32:10.868Z,13.80
2017-07-21T03:34:37.779Z,12.98
2017-07-21T03:37:06.319Z,10.52
2017-07-21T03:39:33.346Z,10.65
2017-07-21T03:42:00.095Z,10.68
2017-07-21T03:44:26.820Z,13.13
2017-07-21T03:46:53.592Z,10.50
2017-07-21T03:49:20.516Z,12.02
2017-07-21T03:51:47.565Z,11.52
2017-07-21T03:54:14.314Z,11.73
2017-07-21T03:56:40.982Z,21.80
2017-07-21T03:59:07.694Z,13.40
2017-07-21T04:01:34.352Z,14.38
2017-07-21T04:04:01.035Z,19.17
2017-07-21T04:06:28.627Z,19.20
2017-07-21T04:08:55.790Z,14.65
2017-07-21T04:11:22.613Z,16.10
2017-07-21T04:13:49.376Z,16.58
2017-07-21T04:16:16.096Z,12.18
2017-07-21T04:18:42.857Z,13.70
2017-07-21T04:21:09.595Z,10.68
2017-07-21T04:23:36.320Z,14.32
2017-07-21T04:26:03.064Z,10.63
2017-07-21T04:28:29.754Z,12.13
2017-07-21T04:30:56.453Z,14.43
2017-07-21T04:33:23.110Z,18.33
2017-07-21T04:35:49.789Z,14.35
2017-07-21T04:38:16.478Z,11.18
2017-07-21T04:40:43.136Z,15.88
2017-07-21T04:43:09.796Z,15.32
2017-07-21T04:45:36.463Z,13.00
2017-07-21T04:48:03.113Z,10.13
2017-07-21T04:50:29.865Z,14.13
2017-07-21T04:52:56.618Z,10.63
2017-07-21T04:55:23.260Z,10.75
2017-07-21T04:57:49.935Z,14.98
2017-07-21T05:00:16.588Z,14.38
2017-07-21T05:02:43.274Z,15.68
2017-07-21T05:05:09.951Z,14.00
2017-07-21T05:07:36.596Z,19.50
2017-07-21T05:10:03.299Z,13.15
2017-07-21T05:12:29.990Z,12.20
2017-07-21T05:14:56.650Z,13.70
2017-07-21T05:17:23.305Z,13.02
2017-07-21T05:19:49.986Z,16.35
2017-07-21T05:22:16.698Z,9.85
2017-07-21T05:24:43.421Z,10.65
2017-07-21T05:27:10.164Z,10.77
2017-07-21T05:29:36.918Z,10.40
2017-07-21T05:32:03.579Z,14.38
2017-07-21T05:34:30.283Z,10.40
2017-07-21T05:36:56.933Z,13.85
2017-07-21T05:39:23.671Z,10.68
2017-07-21T05:41:50.462Z,14.05
2017-07-21T05:44:17.167Z,10.98
2017-07-21T05:46:43.816Z,10.88
2017-07-21T05:49:10.547Z,10.57
2017-07-21T05:51:37.211Z,11.57
2017-07-21T05:54:03.908Z,8.85
2017-07-21T05:56:30.657Z,10.75
2017-07-21T05:58:57.314Z,10.07
2017-07-21T06:01:23.974Z,8.90
2017-07-21T06:03:51.612Z,8.45
2017-07-21T06:06:18.447Z,12.32
2017-07-21T06:08:45.187Z,11.20
2017-07-21T06:11:11.863Z,11.52
2017-07-21T06:13:38.576Z,8.60
2017-07-21T06:16:05.216Z,7.75
2017-07-21T06:18:31.940Z,8.75
2017-07-21T06:20:58.599Z,10.70
2017-07-21T06:23:25.320Z,7.90
2017-07-21T06:25:52.060Z,10.02
2017-07-21T06:28:18.804Z,11.95
2017-07-21T06:30:45.445Z,8.10
2017-07-21T06:33:12.184Z,7.03
2017-07-21T06:35:38.824Z,9.75
2017-07-21T06:38:05.583Z,8.20
2017-07-21T06:40:32.266Z,9.10
2017-07-21T06:42:58.962Z,6.75
2017-07-21T06:45:25.623Z,6.97
2017-07-21T06:47:52.328Z,8.52
2017-07-21T06:50:18.982Z,7.65
2017-07-21T06:52:45.692Z,11.40
2017-07-21T06:55:12.367Z,8.23
2017-07-21T06:57:39.027Z,8.52
2017-07-21T07:00:05.748Z,7.78
2017-07-21T07:02:32.482Z,8.88
2017-07-21T07:04:59.120Z,8.48
2017-07-21T07:07:25.858Z,7.07
2017-07-21T07:09:52.587Z,6.85
2017-07-21T07:12:19.229Z,7.20
2017-07-21T07:14:45.883Z,7.75
2017-07-21T07:17:12.544Z,6.75
2017-07-21T07:19:39.203Z,6.20
2017-07-21T07:22:05.888Z,8.38
2017-07-21T07:24:32.544Z,6.53
2017-07-21T07:26:59.194Z,6.53
2017-07-21T07:29:25.855Z,8.52
2017-07-21T07:31:52.518Z,7.97
2017-07-21T07:34:19.174Z,9.10
2017-07-21T07:36:45.938Z,6.20
2017-07-21T07:39:12.603Z,6.07
2017-07-21T07:41:39.324Z,5.90
2017-07-21T07:44:05.968Z,6.60
2017-07-21T07:46:32.688Z,8.00
2017-07-21T07:48:59.446Z,9.55
2017-07-21T07:51:26.186Z,6.20
2017-07-21T07:53:52.862Z,4.93
2017-07-21T07:56:19.511Z,5.53
2017-07-21T07:58:46.166Z,3.95
2017-07-21T08:01:12.943Z,5.90
2017-07-21T08:03:39.690Z,4.75
2017-07-21T08:06:06.351Z,5.30
2017-07-21T08:08:33.075Z,5.20
2017-07-21T08:10:59.730Z,5.18
2017-07-21T08:13:26.386Z,4.87
2017-07-21T08:15:53.923Z,6.25
2017-07-21T08:18:20.578Z,5.18
2017-07-21T08:20:47.220Z,6.93
2017-07-21T08:23:13.922Z,7.37
2017-07-21T08:25:40.583Z,5.78
2017-07-21T08:28:07.292Z,5.55
2017-07-21T08:30:33.959Z,5.75
2017-07-21T08:33:00.614Z,4.32
2017-07-21T08:35:27.274Z,8.88
2017-07-21T08:37:53.954Z,5.62
2017-07-21T08:40:20.607Z,4.95
2017-07-21T08:42:47.342Z,4.07
2017-07-21T08:45:14.087Z,3.97
2017-07-21T08:47:40.735Z,7.47
2017-07-21T08:50:07.464Z,3.10
2017-07-21T08:52:34.128Z,4.40
2017-07-21T08:55:00.842Z,3.12
2017-07-21T08:57:27.495Z,3.85
2017-07-21T08:59:54.217Z,2.03
2017-07-21T09:02:20.970Z,3.12
2017-07-21T09:04:47.695Z,4.87
2017-07-21T09:07:14.453Z,4.82
2017-07-21T09:09:41.130Z,2.85
2017-07-21T09:12:07.776Z,5.40
2017-07-21T09:14:34.436Z,3.50
2017-07-21T09:17:01.100Z,4.50
2017-07-21T09:19:28.439Z,4.00
2017-07-21T09:21:55.197Z,2.60
2017-07-21T09:24:21.927Z,3.70
2017-07-21T09:26:48.702Z,2.60
2017-07-21T09:29:15.383Z,3.55
2017-07-21T09:31:42.031Z,4.75
2017-07-21T09:34:08.701Z,2.97
2017-07-21T09:36:35.549Z,3.90
2017-07-21T09:39:02.218Z,2.50
2017-07-21T09:41:28.934Z,3.15
2017-07-21T09:43:55.678Z,5.30
2017-07-21T09:46:22.399Z,2.75
2017-07-21T09:48:49.058Z,5.15
2017-07-21T09:51:15.895Z,3.95
2017-07-21T09:53:42.624Z,5.30
2017-07-21T09:56:09.263Z,3.47
2017-07-21T09:58:35.931Z,3.60
2017-07-21T10:01:02.648Z,2.60
2017-07-21T10:03:29.288Z,3.63
2017-07-21T10:05:56.027Z,4.40
2017-07-21T10:08:22.694Z,3.90
2017-07-21T10:10:49.336Z,6.33
2017-07-21T10:13:16.048Z,3.87
2017-07-21T10:15:42.794Z,4.13
2017-07-21T10:18:09.451Z,4.40
2017-07-21T10:20:36.108Z,3.13
2017-07-21T10:23:02.822Z,3.10
2017-07-21T10:25:29.477Z,4.27
2017-07-21T10:27:56.193Z,2.47
2017-07-21T10:30:22.847Z,6.03
2017-07-21T10:32:49.587Z,3.17
2017-07-21T10:35:16.258Z,2.07
2017-07-21T10:37:42.971Z,2.83
2017-07-21T10:40:09.706Z,2.20
2017-07-21T10:42:36.433Z,3.03
2017-07-21T10:45:03.072Z,3.80
2017-07-21T10:47:29.726Z,3.50
2017-07-21T10:49:56.388Z,5.57
2017-07-21T10:52:23.050Z,2.80
2017-07-21T10:54:49.706Z,2.83
2017-07-21T10:57:16.380Z,3.43
2017-07-21T10:59:43.024Z,2.77
2017-07-21T11:02:09.659Z,3.00
2017-07-21T11:04:36.331Z,4.27
2017-07-21T11:07:03.050Z,2.20
2017-07-21T11:09:29.782Z,3.33
2017-07-21T11:11:56.623Z,2.27
2017-07-21T11:14:23.375Z,3.67
2017-07-21T11:16:50.095Z,2.70
2017-07-21T11:19:16.751Z,3.03
2017-07-21T11:21:43.407Z,4.63
2017-07-21T11:24:10.111Z,3.67
2017-07-21T11:26:36.969Z,2.70
2017-07-21T11:29:03.631Z,2.37
2017-07-21T11:31:30.276Z,3.87
2017-07-21T11:33:56.987Z,3.53
2017-07-21T11:36:23.743Z,1.73
2017-07-21T11:38:50.403Z,3.00
2017-07-21T11:41:17.106Z,2.80
2017-07-21T11:43:43.813Z,3.10
2017-07-21T11:46:10.499Z,2.13
2017-07-21T11:48:37.178Z,2.70
2017-07-21T11:51:03.879Z,9.60
2017-07-21T11:53:30.619Z,3.07
2017-07-21T11:55:57.281Z,2.67
2017-07-21T11:58:23.947Z,2.20
2017-07-21T12:00:50.633Z,3.33
2017-07-21T12:03:17.306Z,2.87
2017-07-21T12:05:44.004Z,1.93
2017-07-21T12:08:10.651Z,4.60
2017-07-21T12:10:37.390Z,3.37
2017-07-21T12:13:04.142Z,3.20
2017-07-21T12:15:30.873Z,2.50
2017-07-21T12:17:57.627Z,3.10
2017-07-21T12:20:24.283Z,2.97
2017-07-21T12:22:51.006Z,2.70
2017-07-21T12:25:17.754Z,5.17
2017-07-21T12:27:44.396Z,3.37
2017-07-21T12:30:11.107Z,2.83
2017-07-21T12:32:37.862Z,3.37
2017-07-21T12:35:04.518Z,2.40
2017-07-21T12:37:31.237Z,3.00
2017-07-21T12:39:57.976Z,3.67
2017-07-21T12:42:24.743Z,3.30
2017-07-21T12:44:51.470Z,3.10
2017-07-21T12:47:18.147Z,3.00
2017-07-21T12:49:44.840Z,3.10
2017-07-21T12:52:11.584Z,3.00
2017-07-21T12:54:38.339Z,3.10
2017-07-21T12:57:04.992Z,5.07
2017-07-21T12:59:31.706Z,3.17
2017-07-21T13:01:58.416Z,3.33
2017-07-21T13:04:25.070Z,1.83
2017-07-21T13:06:51.713Z,3.30
2017-07-21T13:09:18.744Z,3.87
2017-07-21T13:11:45.384Z,2.60
2017-07-21T13:14:12.071Z,2.17
2017-07-21T13:16:38.759Z,2.07
2017-07-21T13:19:05.404Z,1.90
2017-07-21T13:21:32.044Z,2.30
2017-07-21T13:23:58.704Z,2.00
2017-07-21T13:26:25.343Z,2.00
2017-07-21T13:28:52.084Z,1.80
2017-07-21T13:31:18.851Z,2.30
2017-07-21T13:33:45.583Z,4.90
2017-07-21T13:36:12.312Z,3.67
2017-07-21T13:38:38.972Z,3.13
2017-07-21T13:41:05.616Z,1.50
2017-07-21T13:43:32.335Z,1.80
2017-07-21T13:45:59.072Z,1.90
2017-07-21T13:48:25.708Z,3.80
2017-07-21T13:50:52.367Z,2.47
2017-07-21T13:53:19.042Z,7.43
2017-07-21T13:55:45.731Z,5.30
2017-07-21T13:58:12.486Z,1.30
2017-07-21T14:00:39.155Z,1.13
2017-07-21T14:03:05.871Z,2.53
2017-07-21T14:05:32.516Z,2.03
2017-07-21T14:07:59.232Z,1.77
2017-07-21T14:10:26.100Z,2.90
2017-07-21T14:12:52.754Z,3.03
2017-07-21T14:15:19.474Z,1.73
2017-07-21T14:17:46.135Z,2.63
2017-07-21T14:20:12.802Z,3.00
2017-07-21T14:22:39.478Z,2.17
2017-07-21T14:25:06.231Z,2.17
2017-07-21T14:27:32.914Z,1.80
2017-07-21T14:29:59.607Z,1.90
2017-07-21T14:32:26.308Z,1.93
2017-07-21T14:34:52.966Z,1.70
2017-07-21T14:37:19.642Z,2.07
2017-07-21T14:39:46.360Z,1.73
2017-07-21T14:42:12.996Z,2.03
2017-07-21T14:44:39.670Z,1.57
2017-07-21T14:47:06.326Z,2.07
2017-07-21T14:49:32.982Z,2.10
2017-07-21T14:51:59.644Z,2.30
2017-07-21T14:54:26.301Z,1.40
2017-07-21T14:56:53.035Z,1.40
2017-07-21T14:59:19.710Z,2.67
2017-07-21T15:01:46.353Z,1.27
2017-07-21T15:04:13.075Z,1.80
2017-07-21T15:06:39.736Z,1.97
2017-07-21T15:09:06.394Z,2.30
2017-07-21T15:11:33.099Z,2.07
2017-07-21T15:13:59.778Z,2.07
2017-07-21T15:16:26.475Z,2.00
2017-07-21T15:18:53.215Z,2.03
2017-07-21T15:21:19.959Z,4.40
2017-07-21T15:23:46.669Z,2.07
2017-07-21T15:26:13.439Z,2.30
2017-07-21T15:28:40.108Z,2.70
2017-07-21T15:31:06.804Z,4.67
2017-07-21T15:33:33.563Z,4.37
2017-07-21T15:36:00.758Z,3.53
2017-07-21T15:38:27.431Z,2.53
2017-07-21T15:40:54.068Z,2.23
2017-07-21T15:43:20.835Z,2.40
2017-07-21T15:45:47.557Z,3.10
2017-07-21T15:48:14.200Z,2.43
2017-07-21T15:50:40.950Z,2.33
2017-07-21T15:53:07.595Z,1.90
2017-07-21T15:55:34.235Z,6.60
2017-07-21T15:58:00.978Z,3.43
2017-07-21T16:00:27.710Z,1.83
2017-07-21T16:02:54.355Z,3.90
2017-07-21T16:05:21.021Z,3.30
2017-07-21T16:07:47.719Z,1.83
2017-07-21T16:10:14.355Z,4.80
2017-07-21T16:12:41.026Z,2.10
2017-07-21T16:15:07.668Z,3.13
2017-07-21T16:17:34.387Z,2.30
2017-07-21T16:20:01.120Z,3.53
2017-07-21T16:22:27.755Z,2.00
2017-07-21T16:24:54.399Z,2.50
2017-07-21T16:27:21.052Z,2.07
2017-07-21T16:29:47.780Z,1.90
2017-07-21T16:32:14.434Z,1.60
2017-07-21T16:34:41.174Z,4.47
2017-07-21T16:37:07.903Z,1.80
2017-07-21T16:39:34.622Z,1.87
2017-07-21T16:42:01.294Z,2.40
2017-07-21T16:44:28.020Z,2.10
2017-07-21T16:46:54.768Z,7.07
2017-07-21T16:49:21.442Z,2.40
2017-07-21T16:51:48.143Z,3.93
2017-07-21T16:54:14.798Z,2.17
2017-07-21T16:56:41.542Z,2.60
2017-07-21T16:59:08.264Z,2.20
2017-07-21T17:01:34.903Z,2.40
2017-07-21T17:04:01.649Z,3.03
2017-07-21T17:06:28.289Z,5.63
2017-07-21T17:08:55.043Z,5.00
2017-07-21T17:11:21.704Z,3.43
2017-07-21T17:13:48.427Z,7.00
2017-07-21T17:16:15.087Z,4.90
2017-07-21T17:18:41.752Z,3.03
2017-07-21T17:21:08.415Z,3.67
2017-07-21T17:23:35.074Z,5.33
2017-07-21T17:26:01.732Z,5.60
2017-07-21T17:28:28.371Z,6.33
2017-07-21T17:30:55.012Z,2.73
2017-07-21T17:33:21.723Z,2.60
2017-07-21T17:35:48.364Z,5.17
2017-07-21T17:38:15.014Z,3.10
2017-07-21T17:40:41.675Z,3.50
2017-07-21T17:43:08.398Z,3.43
2017-07-21T17:45:35.040Z,3.30
2017-07-21T17:48:01.771Z,5.60
2017-07-21T17:50:28.426Z,2.93
2017-07-21T17:52:55.083Z,3.23
2017-07-21T17:55:21.775Z,8.53
2017-07-21T17:57:48.438Z,4.13
2017-07-21T18:00:15.099Z,2.87
2017-07-21T18:02:41.805Z,4.70
2017-07-21T18:05:08.559Z,3.70
2017-07-21T18:07:35.302Z,3.30
2017-07-21T18:10:01.983Z,3.47
2017-07-21T18:12:28.625Z,2.97
2017-07-21T18:14:55.283Z,2.97
2017-07-21T18:17:22.044Z,2.70
2017-07-21T18:19:48.698Z,3.10
2017-07-21T18:22:15.355Z,7.80
2017-07-21T18:24:42.020Z,7.27
2017-07-21T18:27:08.687Z,5.20
2017-07-21T18:29:35.463Z,3.80
2017-07-21T18:32:02.136Z,7.12
2017-07-21T18:34:28.838Z,3.30
2017-07-21T18:36:55.581Z,3.85
2017-07-21T18:39:22.252Z,4.35
2017-07-21T18:41:48.949Z,3.28
2017-07-21T18:44:15.687Z,5.35
2017-07-21T18:46:42.367Z,4.00
2017-07-21T18:49:09.082Z,4.47
2017-07-21T18:51:35.826Z,3.35
2017-07-21T18:54:02.548Z,3.20
2017-07-21T18:56:29.200Z,5.30
2017-07-21T18:58:55.932Z,2.97
2017-07-21T19:01:22.690Z,6.37
2017-07-21T19:03:49.426Z,4.85
2017-07-21T19:06:16.071Z,3.85
2017-07-21T19:08:42.906Z,12.27
2017-07-21T19:11:09.635Z,5.47
2017-07-21T19:13:36.298Z,2.90
2017-07-21T19:16:02.964Z,7.70
2017-07-21T19:18:29.608Z,5.05
2017-07-21T19:20:56.296Z,3.80
2017-07-21T19:23:23.040Z,3.83
2017-07-21T19:25:49.775Z,6.72
2017-07-21T19:28:16.423Z,4.55
2017-07-21T19:30:43.089Z,9.13
2017-07-21T19:33:09.752Z,5.65
2017-07-21T19:35:36.422Z,6.10
2017-07-21T19:38:03.198Z,6.50
2017-07-21T19:40:29.925Z,7.57
2017-07-21T19:42:56.583Z,8.05
2017-07-21T19:45:23.267Z,5.65
2017-07-21T19:47:49.939Z,5.93
2017-07-21T19:50:16.571Z,9.82
2017-07-21T19:52:43.315Z,9.68
2017-07-21T19:55:10.064Z,6.40
2017-07-21T19:57:36.706Z,4.90
2017-07-21T20:00:03.374Z,10.73
2017-07-21T20:02:30.098Z,9.05
2017-07-21T20:04:56.839Z,7.25
2017-07-21T20:07:23.583Z,5.28
2017-07-21T20:09:50.242Z,7.25
2017-07-21T20:12:16.971Z,8.32
2017-07-21T20:14:43.688Z,7.57
2017-07-21T20:17:10.541Z,5.43
2017-07-21T20:19:37.188Z,11.35
2017-07-21T20:22:03.875Z,6.50
2017-07-21T20:24:30.552Z,7.60
2017-07-21T20:26:57.287Z,9.77
2017-07-21T20:29:24.054Z,5.45
2017-07-21T20:31:50.696Z,7.15
2017-07-21T20:34:17.435Z,8.88
2017-07-21T20:36:44.111Z,6.32
2017-07-21T20:39:10.810Z,10.40
2017-07-21T20:41:37.452Z,5.70
2017-07-21T20:44:04.179Z,6.30
2017-07-21T20:46:30.835Z,6.80
2017-07-21T20:48:57.487Z,5.45
2017-07-21T20:51:24.192Z,9.52
2017-07-21T20:53:50.847Z,5.95
2017-07-21T20:56:17.576Z,7.95
2017-07-21T20:58:44.250Z,8.98
2017-07-21T21:01:10.899Z,6.93
2017-07-21T21:03:37.540Z,7.30
2017-07-21T21:06:04.254Z,8.05
2017-07-21T21:08:30.907Z,6.20
2017-07-21T21:10:57.617Z,6.05
2017-07-21T21:13:24.291Z,8.18
2017-07-21T21:15:50.951Z,6.07
2017-07-21T21:18:17.646Z,6.95
2017-07-21T21:20:44.327Z,7.45
2017-07-21T21:23:10.991Z,6.45
2017-07-21T21:25:37.670Z,8.18
2017-07-21T21:28:04.332Z,7.68
2017-07-21T21:30:30.993Z,22.95
2017-07-21T21:32:57.671Z,18.83
2017-07-21T21:35:24.416Z,12.20
2017-07-21T21:37:51.157Z,8.55
2017-07-21T21:40:17.796Z,7.53
2017-07-21T21:42:44.537Z,10.05
2017-07-21T21:45:11.389Z,7.12
2017-07-21T21:47:38.050Z,9.85
2017-07-21T21:50:04.760Z,6.70
2017-07-21T21:52:31.514Z,7.03
2017-07-21T21:54:58.163Z,14.73
2017-07-21T21:57:24.820Z,7.78
2017-07-21T21:59:51.521Z,11.23
2017-07-21T22:02:18.160Z,8.98
2017-07-21T22:04:44.811Z,9.60
2017-07-21T22:07:11.539Z,10.02
2017-07-21T22:09:38.180Z,8.90
2017-07-21T22:12:04.938Z,8.63
2017-07-21T22:14:31.682Z,8.15
2017-07-21T22:16:58.418Z,10.60
2017-07-21T22:19:25.099Z,10.50
2017-07-21T22:21:51.802Z,10.20
2017-07-21T22:24:18.443Z,7.87
2017-07-21T22:26:45.182Z,18.62
2017-07-21T22:29:11.923Z,9.38
2017-07-21T22:31:38.582Z,18.37
2017-07-21T22:34:05.275Z,12.77
2017-07-21T22:36:31.920Z,8.60
2017-07-21T22:38:58.678Z,8.43
2017-07-21T22:41:25.422Z,9.25
2017-07-21T22:43:52.166Z,7.93
2017-07-21T22:46:18.829Z,10.20
2017-07-21T22:48:45.532Z,7.80
2017-07-21T22:51:12.286Z,6.65
2017-07-21T22:53:38.928Z,6.78
2017-07-21T22:56:05.598Z,7.55
2017-07-21T22:58:32.244Z,7.40
2017-07-21T23:00:58.895Z,8.60
2017-07-21T23:03:25.575Z,6.95
2017-07-21T23:05:52.238Z,11.95
2017-07-21T23:08:18.971Z,10.88
2017-07-21T23:10:45.628Z,9.82
2017-07-21T23:13:12.335Z,8.23
2017-07-21T23:15:39.085Z,7.43
2017-07-21T23:18:05.739Z,7.90
2017-07-21T23:20:32.479Z,13.52
2017-07-21T23:22:59.139Z,12.35
2017-07-21T23:25:25.799Z,7.47
2017-07-21T23:27:52.477Z,9.73
2017-07-21T23:30:19.224Z,7.40
2017-07-21T23:32:45.902Z,7.90
2017-07-21T23:35:12.563Z,7.78
2017-07-21T23:37:39.227Z,6.53
2017-07-21T23:40:05.906Z,5.82
2017-07-21T23:42:32.615Z,12.32
2017-07-21T23:44:59.267Z,6.40
2017-07-21T23:47:25.932Z,12.00
2017-07-21T23:49:52.638Z,6.90
2017-07-21T23:52:19.306Z,7.78
2017-07-21T23:54:46.016Z,6.85
2017-07-21T23:57:12.657Z,9.05
2017-07-21T23:59:39.405Z,7.62
